• Join FlightAware (Why Join?)
  • Login
  • US Flag 
05:58PM EDT


 

Airport Tracker/Info


-or-


 

Live Flight TrackerFlight Track Log ✈ CFH26 ✈ 17-Jul-2013 ✈ YPDN / DRW - YPGV / GOV

Flight Track Log - Related Links

Times and Time Zones

All times are in EDT time to prevent confusion due to time zone crossing. See the CFH26 flight status page for this flight to view local times or setup timezone preferences in your user account.

Time Position Orientation Groundspeed Altitude Reporting Facility
EDT Latitude Longitude Course Direction KTS MPH feet Rate Location/Type
03:58AM -12.4315 130.9613 287° West 25,000  Level Aus ATC (Calculated)
03:58AM -12.3958 130.8390 321° Northwest 156 180 1,300 -31,200 Descending Aus ATC (RADAR)
03:59AM -12.3910 130.8350 315° West 159 183 1,600 1,800 Climbing FlightAware
03:59AM -12.3850 130.8290 316° Northwest 163 188 1,900 1,500 Climbing FlightAware
03:59AM -12.3810 130.8240 309° West 162 186 2,600 1,680 Climbing FlightAware
04:00AM -12.3560 130.8030 321° Northwest 162 186 3,400 1,980 Climbing FlightAware
04:00AM -12.3380 130.7880 321° Northwest 165 190 4,400 1,860 Climbing FlightAware
04:01AM -12.3230 130.7760 322° Northwest 168 193 5,100 1,920 Climbing FlightAware
04:01AM -12.3070 130.7620 319° Northwest 158 182 6,100 2,040 Climbing FlightAware
04:01AM -12.2980 130.7570 332° Northwest 148 170 6,600 1,800 Climbing FlightAware
04:02AM -12.2850 130.7650 31° Northeast 145 167 7,300 1,500 Climbing FlightAware
04:02AM -12.2790 130.7860 74° East 158 182 8,000 1,380 Climbing FlightAware
04:03AM -12.2810 130.8020 97° East 167 192 8,600 1,320 Climbing FlightAware
04:03AM -12.2830 130.8290 94° East 176 203 9,200 1,260 Climbing FlightAware
04:04AM -12.2840 130.8550 92° East 186 214 9,900 1,380 Climbing FlightAware
04:05AM -12.2850 130.9000 91° East 189 217 11,100 1,380 Climbing FlightAware
04:05AM -12.2860 130.9380 92° East 188 216 12,100 1,500 Climbing FlightAware
04:06AM -12.2870 130.9690 92° East 174 200 13,100 1,500 Climbing FlightAware
04:06AM -12.2868 130.9738 92° East 172 198 13,100 1,440 Level Aus ATC (RADAR)
04:07AM -12.2880 131.0070 92° East 166 191 14,200 1,260 Climbing FlightAware
04:07AM -12.2890 131.0350 92° East 170 196 14,800 960 Climbing FlightAware
04:07AM -12.2885 131.0416 92° East 165 190 14,900 1,020 Climbing Aus ATC (RADAR)
04:08AM -12.2894 131.0703 92° East 170 196 15,500 1,020 Climbing Aus ATC (RADAR)
04:08AM -12.2900 131.0730 92° East 177 204 15,600 1,080 Climbing FlightAware
04:09AM -12.2910 131.1090 92° East 179 206 16,400 1,080 Climbing FlightAware
04:09AM -12.2920 131.1480 92° East 179 206 17,200 900 Climbing FlightAware
04:10AM -12.2930 131.1780 92° East 182 209 17,700 840 Climbing FlightAware
04:10AM -12.2930 131.1990 90° East 183 211 18,100 960 Climbing FlightAware
04:11AM -12.2940 131.2410 91° East 183 211 18,900 900 Climbing FlightAware
04:12AM -12.2950 131.2790 92° East 186 214 19,500 780 Climbing FlightAware
04:13AM -12.2960 131.3140 92° East 190 219 20,000 720 Climbing FlightAware
04:13AM -12.2962 131.3509 92° East 187 215 20,500 780 Climbing Aus ATC (RADAR)
04:13AM -12.2970 131.3520 92° East 190 219 20,600 720 Climbing FlightAware
04:14AM -12.2971 131.3868 92° East 189 217 21,000 660 Climbing Aus ATC (RADAR)
04:14AM -12.2980 131.3900 92° East 192 221 21,100 780 Climbing FlightAware
04:15AM -12.2980 131.4280 92° East 197 227 21,600 660 Climbing FlightAware
04:15AM -12.2974 131.4326 92° East 192 221 21,600 660 Level Aus ATC (RADAR)
04:15AM -12.2990 131.4670 92° East 199 229 22,100 720 Climbing FlightAware
04:16AM -12.3000 131.5060 92° East 202 232 22,600 660 Climbing FlightAware
04:17AM -12.3010 131.5580 91° East 205 236 23,200 600 Climbing FlightAware
04:18AM -12.3020 131.6030 91° East 209 241 23,600 540 Climbing FlightAware
04:18AM -12.3020 131.6290 90° East 208 239 23,900 600 Climbing FlightAware
04:19AM -12.3030 131.6790 91° East 209 241 24,400 480 Climbing FlightAware
04:20AM -12.3034 131.7231 91° East 206 237 24,700 420 Climbing Aus ATC (RADAR)
04:20AM -12.3040 131.7210 91° East 209 241 24,700 300 Level FlightAware
04:20AM -12.3046 131.7577 91° East 206 237 24,900 420 Climbing Aus ATC (RADAR)
04:20AM -12.3050 131.7610 91° East 212 244 25,000  Climbing FlightAware
04:21AM -12.3048 131.8047 91° East 220 253 24,900  Descending Aus ATC (RADAR)
04:21AM -12.3060 131.8030 91° East 228 262 25,000  Climbing FlightAware
04:22AM -12.3057 131.8439 91° East 232 267 24,900  Descending Aus ATC (RADAR)
04:22AM -12.3080 131.8430 91° East 228 262 25,000  Climbing FlightAware
04:23AM -12.3085 131.9074 91° East 243 280 24,900  Descending Aus ATC (RADAR)
04:23AM -12.3090 131.9220 91° East 248 285 25,000  Climbing FlightAware
04:24AM -12.3101 131.9723 91° East 248 285 24,900  Descending Aus ATC (RADAR)
04:24AM -12.3110 131.9790 91° East 251 289 25,000  Climbing FlightAware
04:25AM -12.3117 132.0436 91° East 250 288 24,900  Descending Aus ATC (RADAR)
04:25AM -12.3120 132.0460 91° East 252 290 25,000 60 Climbing FlightAware
04:26AM -12.3110 131.9970 271° West 252 290 25,000 -120 Level FlightAware
04:26AM -12.3139 132.1507 271° West 249 287 24,900  Descending Aus ATC (RADAR)
04:26AM -12.3120 132.0460 271° West 252 290 25,000 60 Climbing FlightAware
04:27AM -12.3130 132.0830 92° East 252 290 25,000 -60 Level FlightAware
04:27AM -12.3110 131.9970 271° West 25,000 -120 Level FlightAware
04:28AM -12.3155 132.2933 271° West 250 288 24,900 -120 Descending Aus ATC (RADAR)
04:29AM -12.3158 132.3348 90° East 249 287 24,900  Level Aus ATC (RADAR)
04:29AM -12.3167 132.3884 91° East 250 288 24,900  Level Aus ATC (RADAR)
04:30AM -12.3174 132.4360 91° East 250 288 24,900  Level Aus ATC (RADAR)
04:31AM -12.3185 132.5015 91° East 250 288 24,900  Level Aus ATC (RADAR)
04:32AM -12.3188 132.5670 90° East 250 288 24,900  Level Aus ATC (RADAR)
04:33AM -12.3193 132.6208 90° East 251 289 24,900  Level Aus ATC (RADAR)
04:34AM -12.3208 132.6930 91° East 252 290 24,900  Level Aus ATC (RADAR)
04:34AM -12.3207 132.7352 90° East 253 291 24,900  Level Aus ATC (RADAR)
04:35AM -12.3221 132.7776 92° East 254 292 24,900  Level Aus ATC (RADAR)
04:36AM -12.3227 132.8381 91° East 253 291 24,900  Level Aus ATC (RADAR)
04:37AM -12.3237 132.9106 91° East 254 292 24,900  Level Aus ATC (RADAR)
04:38AM -12.3251 132.9774 91° East 255 293 24,900  Level Aus ATC (RADAR)
04:39AM -12.3260 133.0745 91° East 254 292 24,900  Level Aus ATC (RADAR)
04:40AM -12.3274 133.1473 91° East 255 293 24,900  Level Aus ATC (RADAR)
04:41AM -12.3285 133.2079 91° East 255 293 24,900  Level Aus ATC (RADAR)
04:41AM -12.3290 133.2502 91° East 255 293 24,900  Level Aus ATC (RADAR)
04:42AM -12.3301 133.3048 91° East 254 292 24,900  Level Aus ATC (RADAR)
04:43AM -12.3313 133.3778 91° East 255 293 24,900  Level Aus ATC (RADAR)
04:44AM -12.3320 133.4447 91° East 255 293 24,900  Level Aus ATC (RADAR)
04:44AM -12.3326 133.4873 91° East 255 293 24,900  Level Aus ATC (RADAR)
04:45AM -12.3336 133.5481 91° East 256 295 24,900  Level Aus ATC (RADAR)
04:46AM -12.3346 133.6214 91° East 257 296 24,900  Level Aus ATC (RADAR)
04:47AM -12.3357 133.6824 91° East 257 296 24,900  Level Aus ATC (RADAR)
04:48AM -12.3373 133.7373 92° East 256 295 24,900  Level Aus ATC (RADAR)
04:49AM -12.3364 133.7920 89° East 255 293 24,900  Level Aus ATC (RADAR)
04:49AM -12.3372 133.8347 91° East 255 293 24,900  Level Aus ATC (RADAR)
04:50AM -12.3375 133.8895 90° East 256 295 24,900  Level Aus ATC (RADAR)
04:51AM -12.3385 133.9628 91° East 256 295 24,900  Level Aus ATC (RADAR)
04:52AM -12.3395 134.0178 91° East 257 296 24,900  Level Aus ATC (RADAR)
04:52AM -12.3402 134.0668 91° East 257 296 24,900 60 Level Aus ATC (RADAR)
04:53AM -12.3411 134.1218 91° East 257 296 25,000 60 Climbing Aus ATC (RADAR)
04:54AM -12.3415 134.1833 90° East 259 298 25,000  Level Aus ATC (RADAR)
04:55AM -12.3431 134.2384 92° East 258 297 25,000  Level Aus ATC (RADAR)
04:55AM -12.3427 134.2818 89° East 260 299 25,000  Level Aus ATC (RADAR)
04:56AM -12.3441 134.3559 91° East 258 297 25,000  Level Aus ATC (RADAR)
04:57AM -12.3446 134.4172 91° East 257 296 25,000  Level Aus ATC (RADAR)
04:58AM -12.3445 134.4792 90° East 260 299 25,000  Level Aus ATC (RADAR)
04:58AM -12.3419 134.5166 86° East 265 305 25,000  Level Aus ATC (RADAR)
04:59AM -12.3379 134.5576 84° East 255 293 25,000  Level Aus ATC (RADAR)
05:00AM -12.3366 134.5938 88° East 254 292 25,000  Level Aus ATC (RADAR)
05:01AM -12.3354 134.7103 89° East 257 296 25,000  Level Aus ATC (RADAR)
05:02AM -12.3346 134.7718 89° East 259 298 25,000  Level Aus ATC (RADAR)
05:03AM -12.3312 134.8823 88° East 261 300 25,000  Level Aus ATC (RADAR)
05:04AM -12.3246 134.9311 82° East 263 303 25,000  Level Aus ATC (RADAR)
05:08AM -12.3164 135.2518 88° East 500 -5,880 Descending Aus ATC (Calculated)
05:10AM -12.3141 135.3291 88° East  Level FlightAware Approximate
05:11AM -12.3121 135.3945 88° East  Level FlightAware Approximate
05:12AM -12.3101 135.4598 88° East  Level FlightAware Approximate
05:12AM -12.3074 135.5452 88° East 500  Level Aus ATC (Calculated)
05:14AM -12.3042 135.6476 88° East  Level FlightAware Approximate
05:15AM -12.3022 135.7129 88° East  Level FlightAware Approximate
05:15AM -12.2999 135.7836 88° East 500  Level Aus ATC (Calculated)
05:17AM -12.2966 135.8870 88° East  Level FlightAware Approximate
05:18AM -12.2945 135.9523 88° East  Level FlightAware Approximate
05:19AM -12.2923 136.0177 88° East  Level FlightAware Approximate
05:19AM -12.2883 136.1386 88° East 500  Level Aus ATC (Calculated)
05:21AM -12.2846 136.2508 88° East  Level FlightAware Approximate
05:21AM -12.2826 136.3081 88° East 500  Level Aus ATC (Calculated)
05:23AM -12.2791 136.4115 88° East  Level FlightAware Approximate
05:24AM -12.2769 136.4768 88° East  Level FlightAware Approximate
05:24AM -12.2739 136.5623 360° North 500  Level Aus ATC (Calculated)
05:24AM -12.2739 136.5623 88° East 500  Level Aus ATC (Calculated)
05:26AM -12.2712 136.6396 88° East  Level FlightAware Approximate
05:27AM -12.2689 136.7049 88° East  Level FlightAware Approximate
05:27AM -12.2672 136.7529 95° East 500  Level Aus ATC (Calculated)
05:29AM -12.2739 136.8239 88° East  Level Estimated
05:30AM -12.2739 136.8239 321° Northwest  Level Estimated
05:31AM -12.2739 136.8239 321° Northwest  Level Estimated
05:32AM -12.2739 136.8239 321° Northwest  Level Estimated
05:33AM -12.2739 136.8239 321° Northwest  Level Estimated